Time;durP1;ratioP1;P1;durP2;ratioP2;P2;SDS_P1;SDS_P2;PMS_P1;PMS_P2;Temp;Humidity;BMP_temperature;BMP_pressure;BME280_temperature;BME280_humidity;BME280_pressure;Samples;Min_cycle;Max_cycle;Signal;HPM_P1;HPM_P2
2023/12/17 00:00:52;;;;;;;14.23;12.30;;;3.00;99.90;;;;;;5046967;28;20891;-88
2023/12/17 00:03:17;;;;;;;13.57;10.60;;;3.00;99.90;;;;;;5047841;28;20190;-89
2023/12/17 00:05:43;;;;;;;14.87;10.43;;;3.20;99.90;;;;;;5049119;28;20187;-88
2023/12/17 00:08:08;;;;;;;11.53;9.73;;;3.40;99.90;;;;;;5045305;28;20216;-88
2023/12/17 00:10:34;;;;;;;13.77;11.17;;;3.50;99.90;;;;;;5048610;28;20591;-88
2023/12/17 00:12:59;;;;;;;12.97;10.30;;;3.20;99.90;;;;;;5050247;28;20650;-89
2023/12/17 00:15:25;;;;;;;10.20;9.20;;;3.30;99.90;;;;;;5048081;28;20205;-89
2023/12/17 00:17:50;;;;;;;12.90;9.67;;;2.90;99.90;;;;;;5058019;28;20186;-88
2023/12/17 00:20:16;;;;;;;12.70;9.40;;;3.10;99.90;;;;;;5064140;28;20601;-89
2023/12/17 00:22:41;;;;;;;13.30;9.80;;;2.80;99.90;;;;;;5046487;28;20195;-87
2023/12/17 00:25:07;;;;;;;12.87;9.40;;;3.30;99.90;;;;;;5047881;28;20305;-88
2023/12/17 00:27:33;;;;;;;12.17;9.40;;;2.70;99.90;;;;;;5050108;28;20209;-88
2023/12/17 00:29:58;;;;;;;12.77;9.93;;;2.50;99.90;;;;;;5046946;28;20453;-89
2023/12/17 00:32:23;;;;;;;14.37;10.50;;;2.90;99.90;;;;;;5044416;28;20224;-89
2023/12/17 00:34:49;;;;;;;10.47;9.33;;;2.40;99.90;;;;;;5042701;28;20242;-87
2023/12/17 00:37:14;;;;;;;12.57;9.87;;;2.60;99.90;;;;;;5047798;28;20197;-90
2023/12/17 00:39:40;;;;;;;11.17;9.07;;;2.90;99.90;;;;;;5045385;28;20204;-89
2023/12/17 00:42:06;;;;;;;13.03;9.67;;;3.30;99.90;;;;;;5049760;28;20193;-89
2023/12/17 00:44:31;;;;;;;14.93;9.67;;;2.70;99.90;;;;;;5046523;28;20370;-89
2023/12/17 00:46:57;;;;;;;15.87;9.33;;;3.20;99.90;;;;;;5045040;28;20225;-89
2023/12/17 00:49:22;;;;;;;9.87;8.87;;;2.70;99.90;;;;;;5046375;28;20186;-87
2023/12/17 00:51:48;;;;;;;11.27;9.27;;;2.90;99.90;;;;;;5052419;28;20276;-86
2023/12/17 00:54:14;;;;;;;11.50;9.10;;;3.30;99.90;;;;;;5076644;28;20197;-84
2023/12/17 00:56:39;;;;;;;11.20;8.50;;;3.40;99.90;;;;;;5062045;28;20597;-86
2023/12/17 00:59:05;;;;;;;10.70;8.73;;;3.30;99.90;;;;;;5054926;28;20451;-85
2023/12/17 01:01:30;;;;;;;10.30;8.17;;;2.80;99.90;;;;;;5074308;28;20211;-87
2023/12/17 01:03:57;;;;;;;9.77;8.70;;;2.60;99.90;;;;;;5060213;28;20233;-87
2023/12/17 01:06:23;;;;;;;12.55;9.55;;;3.00;99.90;;;;;;5052719;28;20190;-86
2023/12/17 01:08:48;;;;;;;13.30;8.70;;;2.70;99.90;;;;;;5051501;28;20174;-87
2023/12/17 01:11:14;;;;;;;11.90;8.90;;;2.80;99.90;;;;;;5050454;28;20182;-87
2023/12/17 01:13:39;;;;;;;13.30;8.97;;;2.30;99.90;;;;;;5050910;28;20563;-88
2023/12/17 01:16:05;;;;;;;9.27;7.90;;;3.10;99.90;;;;;;5049092;28;20181;-84
2023/12/17 01:18:32;;;;;;;14.03;9.07;;;2.90;99.90;;;;;;5052711;28;20279;-88
2023/12/17 01:20:59;;;;;;;11.45;8.40;;;2.90;99.90;;;;;;5052287;28;20444;-86
2023/12/17 01:23:25;;;;;;;10.00;8.15;;;2.70;99.90;;;;;;5047509;28;20254;-85
2023/12/17 01:25:50;;;;;;;15.03;9.10;;;3.10;99.90;;;;;;5052310;28;20596;-85
2023/12/17 01:28:16;;;;;;;12.23;8.20;;;2.70;99.90;;;;;;5053646;28;20258;-87
2023/12/17 01:30:41;;;;;;;11.50;9.80;;;2.70;99.90;;;;;;5051800;28;20178;-88
2023/12/17 01:33:07;;;;;;;9.53;8.60;;;2.80;99.90;;;;;;5050115;28;20182;-87
2023/12/17 01:35:32;;;;;;;9.07;8.00;;;3.30;99.90;;;;;;5057425;28;20201;-89
2023/12/17 01:37:58;;;;;;;10.70;8.47;;;2.60;99.90;;;;;;5057868;28;20251;-88
2023/12/17 01:40:23;;;;;;;11.53;8.93;;;2.60;99.90;;;;;;5058929;28;20560;-87
2023/12/17 01:42:52;;;;;;;9.57;8.50;;;3.10;99.90;;;;;;5047706;28;20189;-87
2023/12/17 01:45:18;;;;;;;9.00;8.10;;;3.10;99.90;;;;;;5055878;28;20213;-88
2023/12/17 01:47:44;;;;;;;11.00;8.30;;;2.90;99.90;;;;;;5051638;28;20250;-86
2023/12/17 01:50:10;;;;;;;12.55;8.70;;;2.60;99.90;;;;;;5057614;28;20264;-87
2023/12/17 01:52:35;;;;;;;10.30;7.17;;;3.30;99.90;;;;;;5059733;28;20609;-87
2023/12/17 01:55:02;;;;;;;8.60;7.30;;;2.70;99.90;;;;;;5049787;28;20206;-85
2023/12/17 01:57:28;;;;;;;9.40;8.38;;;2.70;99.90;;;;;;5051207;28;20458;-86
2023/12/17 01:59:54;;;;;;;11.03;7.90;;;3.30;99.90;;;;;;5045849;28;20185;-86
2023/12/17 02:02:19;;;;;;;9.90;7.87;;;2.90;99.90;;;;;;5052979;28;20195;-88
2023/12/17 02:04:46;;;;;;;9.80;8.40;;;2.80;99.90;;;;;;5050618;28;20220;-86
2023/12/17 02:07:11;;;;;;;10.10;7.97;;;2.60;99.90;;;;;;5060630;28;20214;-86
2023/12/17 02:09:37;;;;;;;12.07;9.57;;;2.70;99.90;;;;;;5052532;28;20651;-86
2023/12/17 02:12:02;;;;;;;9.03;7.40;;;2.80;99.90;;;;;;5046809;28;20676;-88
2023/12/17 02:14:28;;;;;;;12.13;8.20;;;3.00;99.90;;;;;;5053487;28;20207;-87
2023/12/17 02:16:53;;;;;;;11.47;8.27;;;2.60;99.90;;;;;;5054026;28;20229;-88
2023/12/17 02:19:19;;;;;;;9.60;8.07;;;2.90;99.90;;;;;;5056438;28;20661;-86
2023/12/17 02:21:45;;;;;;;11.17;8.23;;;2.60;99.90;;;;;;5062063;28;20182;-88
2023/12/17 02:24:11;;;;;;;9.77;7.97;;;2.70;99.90;;;;;;5074924;28;20204;-86
2023/12/17 02:26:39;;;;;;;9.23;7.95;;;2.30;99.90;;;;;;5063105;28;20216;-86
2023/12/17 02:29:05;;;;;;;13.98;9.48;;;2.90;99.90;;;;;;5061701;28;20193;-85
2023/12/17 02:31:30;;;;;;;12.60;9.40;;;3.30;99.90;;;;;;5086460;28;20199;-88
2023/12/17 02:33:56;;;;;;;10.40;9.30;;;3.20;99.90;;;;;;5051943;28;20559;-89
2023/12/17 02:36:21;;;;;;;14.37;8.97;;;2.80;99.90;;;;;;5045705;28;20634;-87
2023/12/17 02:38:47;;;;;;;10.50;8.57;;;2.70;99.90;;;;;;5054085;28;20189;-87
2023/12/17 02:41:12;;;;;;;10.13;7.90;;;2.70;99.90;;;;;;5055427;28;20195;-89
2023/12/17 02:43:38;;;;;;;11.37;8.80;;;3.20;99.90;;;;;;5054085;28;20216;-86
2023/12/17 02:46:04;;;;;;;13.77;9.05;;;2.90;99.90;;;;;;5045767;28;20669;-89
2023/12/17 02:48:29;;;;;;;10.00;9.00;;;2.90;99.90;;;;;;5049279;28;20307;-88
2023/12/17 02:50:55;;;;;;;13.70;10.70;;;3.00;99.90;;;;;;5050468;28;20192;-87
2023/12/17 02:53:20;;;;;;;11.10;8.97;;;3.00;99.90;;;;;;5050709;28;20190;-85
2023/12/17 02:55:46;;;;;;;12.60;9.77;;;3.30;99.90;;;;;;5051770;28;20199;-86
2023/12/17 02:58:11;;;;;;;9.93;8.67;;;3.10;99.90;;;;;;5047725;28;20185;-87
2023/12/17 03:00:37;;;;;;;9.77;8.77;;;3.10;99.90;;;;;;5054104;28;20208;-85
2023/12/17 03:03:03;;;;;;;12.50;9.03;;;2.80;99.90;;;;;;5052460;28;20646;-85
2023/12/17 03:05:28;;;;;;;12.60;9.87;;;2.90;99.90;;;;;;5050701;28;20579;-86
2023/12/17 03:07:54;;;;;;;11.63;10.17;;;2.80;99.90;;;;;;5048907;28;20620;-86
2023/12/17 03:10:19;;;;;;;12.53;10.00;;;2.80;99.90;;;;;;5053722;28;20248;-87
2023/12/17 03:12:45;;;;;;;12.00;9.70;;;3.00;99.90;;;;;;5046382;28;20269;-87
2023/12/17 03:15:10;;;;;;;12.60;10.57;;;3.00;99.90;;;;;;5054449;28;20205;-87
2023/12/17 03:17:36;;;;;;;12.17;10.87;;;2.90;99.90;;;;;;5047424;28;20270;-86
2023/12/17 03:20:06;;;;;;;10.73;9.67;;;2.90;99.90;;;;;;5046931;28;20218;-86
2023/12/17 03:22:31;;;;;;;13.60;9.57;;;3.00;99.90;;;;;;5041658;28;20217;-85
2023/12/17 03:24:57;;;;;;;10.30;9.20;;;2.80;99.90;;;;;;5049918;28;20233;-86
2023/12/17 03:27:23;;;;;;;11.23;9.87;;;2.90;99.90;;;;;;5047587;28;20263;-86
2023/12/17 03:29:48;;;;;;;16.67;11.17;;;3.10;99.90;;;;;;5045186;28;20562;-85
2023/12/17 03:32:15;;;;;;;14.53;10.50;;;2.80;99.90;;;;;;5053310;28;20265;-86
2023/12/17 03:34:41;;;;;;;13.18;10.63;;;2.70;99.90;;;;;;5050292;28;20202;-87
2023/12/17 03:37:06;;;;;;;13.10;11.05;;;3.10;99.90;;;;;;5067329;28;20190;-86
2023/12/17 03:39:32;;;;;;;13.30;10.57;;;2.00;99.90;;;;;;5051510;28;20210;-87
2023/12/17 03:41:57;;;;;;;11.57;10.33;;;2.40;99.90;;;;;;5046865;28;20347;-87
2023/12/17 03:44:23;;;;;;;10.27;9.23;;;2.10;99.90;;;;;;5051028;28;20283;-86
2023/12/17 03:46:48;;;;;;;12.20;10.00;;;2.60;99.90;;;;;;5072766;28;20240;-85
2023/12/17 03:49:14;;;;;;;14.30;9.47;;;2.50;99.90;;;;;;5049551;28;20185;-86
2023/12/17 03:51:39;;;;;;;12.10;9.90;;;2.70;99.90;;;;;;5054579;28;20274;-86
2023/12/17 03:54:05;;;;;;;14.10;10.53;;;2.70;99.90;;;;;;5046581;28;20738;-85
2023/12/17 03:56:30;;;;;;;14.83;9.57;;;2.50;99.90;;;;;;5069524;28;20619;-85
2023/12/17 03:58:56;;;;;;;10.03;9.00;;;2.30;99.90;;;;;;5047966;28;20190;-85
2023/12/17 04:01:23;;;;;;;13.60;9.17;;;2.30;99.90;;;;;;5044431;28;20186;-86
2023/12/17 04:03:48;;;;;;;10.05;8.80;;;2.50;99.90;;;;;;5047198;28;20258;-85
2023/12/17 04:06:14;;;;;;;12.17;9.63;;;2.40;99.90;;;;;;5048762;28;20178;-85
2023/12/17 04:08:39;;;;;;;11.20;10.10;;;2.30;99.90;;;;;;5046344;28;20213;-86
2023/12/17 04:11:05;;;;;;;13.67;9.87;;;3.00;99.90;;;;;;5050188;28;20186;-86
2023/12/17 04:13:30;;;;;;;11.03;8.70;;;2.50;99.90;;;;;;5044423;28;20419;-86
2023/12/17 04:15:56;;;;;;;10.37;9.37;;;2.20;99.90;;;;;;5044706;28;20182;-87
2023/12/17 04:18:21;;;;;;;14.23;9.00;;;2.90;99.90;;;;;;5044490;28;20220;-86
2023/12/17 04:20:47;;;;;;;13.00;9.47;;;3.00;99.90;;;;;;5045825;28;20188;-86
2023/12/17 04:23:12;;;;;;;13.13;9.30;;;2.90;99.90;;;;;;5050027;28;20211;-86
2023/12/17 04:25:38;;;;;;;10.37;8.93;;;2.60;99.90;;;;;;5048794;28;20219;-86
2023/12/17 04:28:03;;;;;;;12.53;9.67;;;2.50;99.90;;;;;;5041903;28;20206;-86
2023/12/17 04:30:29;;;;;;;12.23;9.57;;;2.40;99.90;;;;;;5046354;28;20567;-86
2023/12/17 04:32:55;;;;;;;12.15;9.70;;;2.80;99.90;;;;;;5053736;28;20221;-86
2023/12/17 04:35:20;;;;;;;11.50;9.60;;;2.00;99.90;;;;;;5047078;28;20213;-86
2023/12/17 04:37:46;;;;;;;10.77;8.83;;;2.40;99.90;;;;;;5047927;28;20717;-85
2023/12/17 04:40:11;;;;;;;12.60;9.00;;;2.70;99.90;;;;;;5047522;28;20189;-85
2023/12/17 04:42:37;;;;;;;11.70;8.67;;;2.80;99.90;;;;;;5051660;28;20185;-86
2023/12/17 04:45:05;;;;;;;12.00;9.73;;;2.60;99.90;;;;;;5050869;28;20253;-86
2023/12/17 04:47:31;;;;;;;11.13;9.65;;;2.40;99.90;;;;;;5049795;28;20209;-86
2023/12/17 04:49:57;;;;;;;11.20;9.23;;;2.90;99.90;;;;;;5051626;28;20193;-86
2023/12/17 04:52:22;;;;;;;12.50;9.90;;;2.60;99.90;;;;;;5041771;28;20184;-86
2023/12/17 04:54:48;;;;;;;9.93;8.80;;;2.00;99.90;;;;;;5050278;28;20670;-87
2023/12/17 04:57:13;;;;;;;10.80;9.30;;;2.50;99.90;;;;;;5044186;28;20193;-86
2023/12/17 04:59:39;;;;;;;9.30;8.37;;;2.60;99.90;;;;;;5050996;28;20276;-86
2023/12/17 05:02:06;;;;;;;10.53;9.10;;;2.80;99.90;;;;;;5048087;28;20276;-86
2023/12/17 05:04:31;;;;;;;11.50;9.18;;;3.10;99.90;;;;;;5046366;28;20214;-86
2023/12/17 05:06:57;;;;;;;10.27;9.17;;;2.50;99.90;;;;;;5046563;28;20201;-86
2023/12/17 05:09:22;;;;;;;9.93;8.57;;;2.50;99.90;;;;;;5043266;28;20186;-86
2023/12/17 05:11:48;;;;;;;12.13;9.67;;;2.90;99.90;;;;;;5060198;28;20173;-86
2023/12/17 05:14:13;;;;;;;11.10;9.87;;;2.50;99.90;;;;;;5070013;28;20196;-87
2023/12/17 05:16:41;;;;;;;10.40;8.57;;;2.60;99.90;;;;;;5051303;28;20625;-85
2023/12/17 05:19:06;;;;;;;10.82;9.15;;;2.50;99.90;;;;;;5043335;28;20228;-86
2023/12/17 05:21:32;;;;;;;9.77;8.60;;;2.70;99.90;;;;;;5063920;28;20170;-85
2023/12/17 05:23:57;;;;;;;10.47;8.87;;;2.60;99.90;;;;;;5047790;28;20201;-87
2023/12/17 05:26:23;;;;;;;13.63;9.27;;;3.00;99.90;;;;;;5048707;28;20256;-85
2023/12/17 05:28:48;;;;;;;10.73;9.60;;;2.70;99.90;;;;;;5050891;28;20216;-86
2023/12/17 05:31:14;;;;;;;13.37;9.50;;;2.50;99.90;;;;;;5047553;28;20247;-86
2023/12/17 05:33:41;;;;;;;10.47;8.90;;;2.70;99.90;;;;;;5047383;28;20201;-88
2023/12/17 05:36:07;;;;;;;10.70;9.23;;;2.60;99.90;;;;;;5047388;28;20247;-85
2023/12/17 05:38:32;;;;;;;13.63;9.43;;;2.40;99.90;;;;;;5044174;28;20200;-86
2023/12/17 05:40:58;;;;;;;10.83;8.90;;;2.00;99.90;;;;;;5057791;28;20453;-87
2023/12/17 05:43:25;;;;;;;12.83;9.90;;;2.60;99.90;;;;;;5041586;28;20195;-87
2023/12/17 05:45:51;;;;;;;10.82;9.07;;;2.70;99.90;;;;;;5037844;28;20206;-86
2023/12/17 05:48:16;;;;;;;10.50;9.23;;;2.20;99.90;;;;;;5046645;28;20205;-86
2023/12/17 05:50:42;;;;;;;11.00;9.43;;;2.90;99.90;;;;;;5044046;28;20650;-87
2023/12/17 05:53:08;;;;;;;13.90;9.70;;;2.60;99.90;;;;;;5042298;28;20212;-87
2023/12/17 05:55:33;;;;;;;11.43;9.60;;;2.20;99.90;;;;;;5045561;28;20201;-87
2023/12/17 05:57:59;;;;;;;11.30;9.00;;;2.70;99.90;;;;;;5047522;28;20662;-86
2023/12/17 06:00:24;;;;;;;10.03;9.03;;;3.30;99.90;;;;;;5045391;28;20189;-87
2023/12/17 06:02:50;;;;;;;11.13;9.27;;;2.70;99.90;;;;;;5048898;28;20552;-86
2023/12/17 06:05:16;;;;;;;12.00;9.82;;;2.30;99.90;;;;;;5042607;28;20853;-86
2023/12/17 06:07:41;;;;;;;10.87;8.97;;;2.80;99.90;;;;;;5043244;28;20209;-86
2023/12/17 06:10:08;;;;;;;13.07;9.47;;;2.60;99.90;;;;;;5048358;28;20272;-85
2023/12/17 06:12:33;;;;;;;10.70;9.60;;;2.50;99.90;;;;;;5045315;28;20181;-87
2023/12/17 06:14:59;;;;;;;11.70;8.90;;;2.50;99.90;;;;;;5047682;28;20731;-86
2023/12/17 06:17:24;;;;;;;12.30;9.40;;;2.50;99.90;;;;;;5063112;28;20259;-86
2023/12/17 06:19:50;;;;;;;10.70;9.60;;;2.40;99.90;;;;;;5045322;28;20224;-85
2023/12/17 06:22:16;;;;;;;12.13;8.63;;;2.70;99.90;;;;;;5046691;28;20196;-86
2023/12/17 06:24:42;;;;;;;9.68;8.68;;;2.70;99.90;;;;;;5040178;28;20205;-87
2023/12/17 06:27:15;;;;;;;11.80;9.60;;;2.80;99.90;;;;;;5044361;28;20243;-87
2023/12/17 06:29:41;;;;;;;12.43;9.05;;;2.40;99.90;;;;;;5043022;28;20443;-85
2023/12/17 06:32:07;;;;;;;15.20;10.00;;;3.00;99.90;;;;;;5044259;28;20204;-86
2023/12/17 06:34:33;;;;;;;11.75;10.00;;;2.50;99.90;;;;;;5052528;28;20254;-87
2023/12/17 06:36:59;;;;;;;10.70;9.40;;;2.90;99.90;;;;;;5047333;28;20196;-87
2023/12/17 06:39:24;;;;;;;13.57;10.80;;;2.30;99.90;;;;;;5052074;28;20436;-85
2023/12/17 06:41:50;;;;;;;11.43;10.17;;;2.40;99.90;;;;;;5051566;28;20263;-86
2023/12/17 06:44:16;;;;;;;12.17;10.00;;;2.30;99.90;;;;;;5055008;28;20210;-85
2023/12/17 06:46:41;;;;;;;12.52;10.57;;;2.30;99.90;;;;;;5054858;28;20195;-87
2023/12/17 06:49:07;;;;;;;11.90;9.17;;;2.40;99.90;;;;;;5051618;28;20572;-87
2023/12/17 06:51:33;;;;;;;11.90;10.40;;;2.20;99.90;;;;;;5052482;28;20184;-87
2023/12/17 06:53:58;;;;;;;12.80;10.83;;;2.70;99.90;;;;;;5049911;28;20213;-86
2023/12/17 06:56:24;;;;;;;13.50;9.93;;;2.60;99.90;;;;;;5047645;28;20203;-86
2023/12/17 06:58:49;;;;;;;18.03;12.03;;;2.50;99.90;;;;;;5049299;28;20177;-86
2023/12/17 07:01:15;;;;;;;15.03;12.10;;;2.10;99.90;;;;;;5050311;28;20661;-86
2023/12/17 07:03:40;;;;;;;13.00;10.80;;;2.20;99.90;;;;;;5052308;28;20205;-86
2023/12/17 07:06:11;;;;;;;14.80;11.45;;;2.10;99.90;;;;;;5051503;28;20202;-86
2023/12/17 07:08:37;;;;;;;12.10;10.20;;;2.10;99.90;;;;;;5050211;28;20629;-86
2023/12/17 07:11:02;;;;;;;13.95;10.55;;;2.10;99.90;;;;;;5054700;28;20650;-86
2023/12/17 07:13:28;;;;;;;10.90;9.80;;;2.10;99.90;;;;;;5053220;28;20222;-86
2023/12/17 07:15:54;;;;;;;11.77;10.47;;;2.20;99.90;;;;;;5055690;28;20181;-86
2023/12/17 07:18:20;;;;;;;12.77;10.90;;;1.70;99.90;;;;;;5053172;28;20197;-86
2023/12/17 07:20:45;;;;;;;11.93;10.67;;;2.40;99.90;;;;;;5053786;28;20621;-86
2023/12/17 07:23:11;;;;;;;11.50;9.60;;;2.20;99.90;;;;;;5054684;28;20607;-86
2023/12/17 07:25:36;;;;;;;11.87;10.67;;;2.30;99.90;;;;;;5056402;28;20458;-86
2023/12/17 07:28:02;;;;;;;12.40;9.30;;;2.20;99.90;;;;;;5053840;28;20200;-87
2023/12/17 07:30:27;;;;;;;15.93;10.40;;;2.40;99.90;;;;;;5056242;28;20217;-87
2023/12/17 07:32:53;;;;;;;11.67;9.63;;;2.80;99.90;;;;;;5062699;28;20214;-87
2023/12/17 07:35:18;;;;;;;13.37;10.73;;;2.50;99.90;;;;;;5056493;28;20257;-86
2023/12/17 07:37:44;;;;;;;11.40;10.17;;;2.00;99.90;;;;;;5061259;28;20286;-86
2023/12/17 07:40:10;;;;;;;10.63;9.53;;;2.10;99.90;;;;;;5057199;28;20214;-86
2023/12/17 07:42:35;;;;;;;12.53;10.33;;;2.50;99.90;;;;;;5062848;28;20212;-86
2023/12/17 07:45:01;;;;;;;11.40;9.77;;;2.70;99.90;;;;;;5061880;28;20460;-86
2023/12/17 07:47:26;;;;;;;10.87;9.67;;;2.40;99.90;;;;;;5053277;28;20213;-86
2023/12/17 07:49:52;;;;;;;11.00;9.73;;;2.70;99.90;;;;;;5050282;28;20170;-86
2023/12/17 07:52:17;;;;;;;12.47;9.30;;;2.70;99.90;;;;;;5070276;28;20174;-86
2023/12/17 07:54:43;;;;;;;12.17;10.70;;;2.80;99.90;;;;;;5075959;28;20189;-86
2023/12/17 07:57:09;;;;;;;10.50;9.50;;;3.10;99.90;;;;;;5074533;28;20265;-87
2023/12/17 07:59:34;;;;;;;13.35;11.23;;;3.00;99.90;;;;;;5062937;28;20366;-85
2023/12/17 08:02:00;;;;;;;10.83;9.33;;;2.70;99.90;;;;;;5075942;28;20202;-85
2023/12/17 08:04:26;;;;;;;11.43;10.33;;;2.60;99.90;;;;;;5058382;28;20402;-86
2023/12/17 08:06:51;;;;;;;11.40;10.20;;;2.60;99.90;;;;;;5052202;28;20870;-86
2023/12/17 08:09:17;;;;;;;13.43;10.77;;;3.20;99.90;;;;;;5044723;28;20757;-86
2023/12/17 08:11:44;;;;;;;13.30;9.60;;;2.60;99.90;;;;;;5050689;28;20190;-86
2023/12/17 08:14:09;;;;;;;12.23;9.95;;;2.90;99.90;;;;;;5061431;28;20206;-86
2023/12/17 08:16:35;;;;;;;13.90;9.77;;;3.00;99.90;;;;;;5054057;28;20186;-87
2023/12/17 08:19:00;;;;;;;14.23;9.40;;;2.90;99.90;;;;;;5053173;28;20431;-87
2023/12/17 08:21:26;;;;;;;14.43;11.90;;;2.80;99.90;;;;;;5054938;28;20466;-85
2023/12/17 08:23:51;;;;;;;12.87;10.20;;;2.60;99.90;;;;;;5068922;28;20625;-87
2023/12/17 08:26:17;;;;;;;11.20;9.90;;;2.70;99.90;;;;;;5065989;28;20686;-85
2023/12/17 08:28:43;;;;;;;11.40;10.30;;;3.40;99.90;;;;;;5054362;28;20215;-86
2023/12/17 08:31:09;;;;;;;11.70;10.50;;;3.20;99.90;;;;;;5046300;28;20205;-87
2023/12/17 08:33:36;;;;;;;13.05;10.77;;;2.80;99.90;;;;;;5045613;28;20656;-86
2023/12/17 08:36:02;;;;;;;12.02;9.70;;;3.20;99.90;;;;;;5045729;28;20186;-85
2023/12/17 08:38:30;;;;;;;12.60;11.27;;;2.90;99.90;;;;;;5048099;28;21006;-94
2023/12/17 08:40:56;;;;;;;10.85;9.77;;;2.90;99.90;;;;;;5051837;28;20246;-87
2023/12/17 08:43:21;;;;;;;11.60;10.40;;;3.10;99.90;;;;;;5051734;28;20201;-86
2023/12/17 08:45:47;;;;;;;12.10;10.03;;;3.20;99.90;;;;;;5045185;28;20193;-87
2023/12/17 08:48:13;;;;;;;10.63;9.63;;;3.40;99.90;;;;;;5053850;28;20201;-85
2023/12/17 08:50:38;;;;;;;12.30;11.00;;;2.80;99.90;;;;;;5052117;28;20199;-87
2023/12/17 08:53:04;;;;;;;12.90;10.97;;;3.30;99.90;;;;;;5048011;28;20465;-87
2023/12/17 08:55:29;;;;;;;11.60;10.00;;;3.90;99.90;;;;;;5048728;28;20201;-86
2023/12/17 08:57:55;;;;;;;12.90;10.57;;;3.40;99.90;;;;;;5074825;28;20289;-86
2023/12/17 09:00:20;;;;;;;12.93;10.10;;;3.80;99.90;;;;;;5051247;28;20201;-87
2023/12/17 09:02:46;;;;;;;9.43;8.43;;;2.90;99.90;;;;;;5048802;28;20190;-87
2023/12/17 09:05:12;;;;;;;13.33;10.50;;;3.70;99.90;;;;;;5051830;28;20210;-85
2023/12/17 09:07:38;;;;;;;12.48;10.10;;;4.30;99.90;;;;;;5051986;28;20217;-85
2023/12/17 09:10:04;;;;;;;11.20;10.10;;;4.00;99.90;;;;;;5046409;28;20189;-86
2023/12/17 09:12:30;;;;;;;11.70;10.20;;;4.10;99.90;;;;;;5046546;28;20443;-85
2023/12/17 09:14:55;;;;;;;7.93;7.23;;;5.30;99.90;;;;;;5047317;28;20465;-87
2023/12/17 09:17:22;;;;;;;10.80;9.60;;;4.10;99.90;;;;;;5047874;28;20192;-86
2023/12/17 09:19:48;;;;;;;9.30;8.40;;;4.20;99.90;;;;;;5050203;28;20223;-86
2023/12/17 09:22:13;;;;;;;11.13;9.20;;;4.30;99.90;;;;;;5050106;28;20190;-86
2023/12/17 09:24:40;;;;;;;11.47;9.80;;;4.90;99.90;;;;;;5043015;28;20204;-86
2023/12/17 09:27:06;;;;;;;10.43;9.43;;;5.30;99.90;;;;;;5045418;28;20498;-86
2023/12/17 09:29:32;;;;;;;10.65;9.15;;;6.00;99.90;;;;;;5048088;28;20688;-87
2023/12/17 09:31:58;;;;;;;10.02;8.30;;;6.20;99.90;;;;;;5042262;28;20189;-86
2023/12/17 09:34:23;;;;;;;11.93;10.57;;;6.80;99.90;;;;;;5043467;28;20212;-86
2023/12/17 09:36:49;;;;;;;10.77;9.67;;;7.00;99.90;;;;;;5044781;28;20181;-87
2023/12/17 09:39:14;;;;;;;11.73;10.53;;;7.10;99.90;;;;;;5047453;28;20269;-87
2023/12/17 09:41:43;;;;;;;11.70;10.53;;;6.60;99.90;;;;;;5053298;28;20213;-88
2023/12/17 09:44:08;;;;;;;11.38;10.35;;;6.40;99.90;;;;;;5053688;28;20295;-88
2023/12/17 09:46:35;;;;;;;12.07;10.70;;;6.50;99.90;;;;;;5057235;28;20888;-87
2023/12/17 09:49:01;;;;;;;11.88;10.68;;;7.00;99.90;;;;;;5075304;28;20660;-88
2023/12/17 09:51:28;;;;;;;11.80;10.60;;;6.30;99.90;;;;;;5061064;28;20184;-88
2023/12/17 09:53:57;;;;;;;10.75;9.75;;;6.40;99.90;;;;;;5048588;28;20466;-88
2023/12/17 09:56:22;;;;;;;11.07;9.98;;;6.80;99.90;;;;;;5050055;28;20190;-87
2023/12/17 09:58:48;;;;;;;12.40;11.03;;;7.40;99.90;;;;;;5048997;28;20307;-86
2023/12/17 10:01:14;;;;;;;12.03;10.60;;;7.80;99.90;;;;;;5049248;28;20184;-86
2023/12/17 10:03:40;;;;;;;11.00;9.90;;;9.10;99.90;;;;;;5053439;28;20216;-87
2023/12/17 10:06:05;;;;;;;10.93;9.70;;;8.90;99.90;;;;;;5050014;28;20196;-86
2023/12/17 10:08:33;;;;;;;9.70;8.90;;;8.90;99.90;;;;;;5069450;28;20212;-87
2023/12/17 10:10:59;;;;;;;9.93;8.93;;;8.60;99.90;;;;;;5050352;28;20436;-87
2023/12/17 10:13:26;;;;;;;11.37;10.37;;;8.60;99.90;;;;;;5045025;28;20192;-88
2023/12/17 10:15:56;;;;;;;10.82;9.82;;;8.60;99.90;;;;;;5044464;28;20190;-87
2023/12/17 10:18:22;;;;;;;10.10;9.07;;;9.30;99.90;;;;;;5052088;28;20189;-87
2023/12/17 10:20:49;;;;;;;10.10;9.10;;;9.20;99.90;;;;;;5050249;28;20187;-86
2023/12/17 10:23:15;;;;;;;11.20;10.10;;;9.70;99.90;;;;;;5052240;28;20214;-86
2023/12/17 10:25:42;;;;;;;10.88;9.77;;;10.10;98.80;;;;;;5051728;28;20184;-86
2023/12/17 10:28:12;;;;;;;11.10;9.85;;;10.30;98.20;;;;;;5047340;28;20212;-86
2023/12/17 10:30:38;;;;;;;11.02;9.93;;;10.00;97.40;;;;;;5054218;28;20185;-87
2023/12/17 10:33:11;;;;;;;10.05;9.18;;;11.40;97.60;;;;;;5050910;28;20177;-87
2023/12/17 10:35:37;;;;;;;9.13;8.23;;;11.40;96.10;;;;;;5044360;28;20675;-88
2023/12/17 10:38:05;;;;;;;10.65;9.55;;;12.30;95.10;;;;;;5046652;28;20281;-86
2023/12/17 10:40:36;;;;;;;10.57;9.57;;;11.90;94.20;;;;;;5052756;28;20176;-86
2023/12/17 10:43:04;;;;;;;9.55;8.57;;;11.80;94.30;;;;;;5055518;28;20566;-87
2023/12/17 10:45:31;;;;;;;11.43;10.40;;;12.70;94.00;;;;;;5050701;28;20211;-88
2023/12/17 10:47:58;;;;;;;9.85;8.95;;;13.20;93.10;;;;;;5052549;28;20254;-88
2023/12/17 10:50:25;;;;;;;10.13;9.18;;;13.70;92.30;;;;;;5051914;28;20183;-86
2023/12/17 10:52:54;;;;;;;10.55;9.52;;;13.80;91.30;;;;;;5043773;28;20178;-87
2023/12/17 10:55:21;;;;;;;10.80;9.90;;;14.30;90.50;;;;;;5053584;28;20719;-86
2023/12/17 10:57:58;;;;;;;9.80;8.95;;;13.90;89.30;;;;;;5052037;28;20281;-86
2023/12/17 11:00:27;;;;;;;9.18;8.27;;;13.20;90.60;;;;;;5070168;28;20215;-86
2023/12/17 11:02:55;;;;;;;9.70;8.90;;;12.60;90.90;;;;;;5047229;28;20189;-87
2023/12/17 11:05:21;;;;;;;9.57;8.63;;;13.20;91.40;;;;;;5053478;28;20232;-87
2023/12/17 11:07:46;;;;;;;9.90;9.03;;;13.00;90.90;;;;;;5057092;28;20776;-88
2023/12/17 11:10:12;;;;;;;10.80;9.80;;;12.70;91.40;;;;;;5051208;28;20189;-88
2023/12/17 11:12:44;;;;;;;11.10;10.05;;;12.40;92.20;;;;;;5044970;28;20180;-87
2023/12/17 11:15:11;;;;;;;10.40;9.30;;;12.20;92.60;;;;;;5048419;28;20295;-88
2023/12/17 11:17:41;;;;;;;10.20;9.20;;;12.10;93.10;;;;;;5044863;28;20214;-86
2023/12/17 11:20:08;;;;;;;11.73;10.50;;;12.30;93.00;;;;;;5058504;28;20191;-86
2023/12/17 11:22:35;;;;;;;11.18;9.35;;;11.60;94.20;;;;;;5080329;28;20247;-86
2023/12/17 11:25:01;;;;;;;10.25;9.35;;;11.00;95.10;;;;;;5061670;28;20204;-89
2023/12/17 11:27:26;;;;;;;10.20;9.30;;;10.60;95.10;;;;;;5055715;28;20225;-87
2023/12/17 11:29:55;;;;;;;11.57;9.60;;;11.00;95.50;;;;;;5059249;28;20267;-87
2023/12/17 11:32:29;;;;;;;10.27;8.65;;;10.80;95.20;;;;;;5051205;28;20191;-86
2023/12/17 11:34:57;;;;;;;7.55;6.85;;;11.30;95.60;;;;;;5056555;28;20691;-89
2023/12/17 11:37:24;;;;;;;6.80;6.22;;;11.10;95.40;;;;;;5054200;28;20245;-89
2023/12/17 11:39:52;;;;;;;7.72;7.03;;;11.20;94.30;;;;;;5053386;28;20193;-87
2023/12/17 11:42:19;;;;;;;7.10;6.40;;;11.30;94.70;;;;;;5052892;28;20192;-87
2023/12/17 11:44:46;;;;;;;7.50;6.80;;;10.80;95.20;;;;;;5055190;28;20204;-88
2023/12/17 11:47:12;;;;;;;7.57;6.85;;;10.90;95.40;;;;;;5043760;28;20299;-88
2023/12/17 11:49:39;;;;;;;8.98;8.20;;;11.30;95.70;;;;;;5059287;28;20180;-87
2023/12/17 11:52:15;;;;;;;9.88;8.98;;;10.90;95.60;;;;;;5078577;28;20238;-87
2023/12/17 11:54:42;;;;;;;11.32;10.23;;;11.10;95.50;;;;;;5046887;28;20210;-85
2023/12/17 11:57:24;;;;;;;11.73;10.55;;;10.80;96.00;;;;;;5061929;28;20228;-84
2023/12/17 11:59:50;;;;;;;11.38;10.38;;;10.30;96.20;;;;;;5056957;28;20237;-86
2023/12/17 12:02:17;;;;;;;11.07;9.87;;;9.00;96.70;;;;;;5058564;28;20196;-86
2023/12/17 12:04:44;;;;;;;11.77;10.68;;;9.90;97.00;;;;;;5065797;28;20216;-86
2023/12/17 12:07:11;;;;;;;12.98;11.75;;;10.10;96.40;;;;;;5053194;28;20265;-86
2023/12/17 12:09:37;;;;;;;12.20;11.00;;;9.90;97.20;;;;;;5049377;28;20204;-86
2023/12/17 12:12:13;;;;;;;10.93;9.83;;;10.70;96.70;;;;;;5061233;28;20192;-87
2023/12/17 12:14:39;;;;;;;11.25;10.10;;;10.60;96.40;;;;;;5054724;28;20465;-87
2023/12/17 12:17:05;;;;;;;12.50;11.30;;;11.00;96.80;;;;;;5055067;28;20184;-85
2023/12/17 12:19:30;;;;;;;10.97;9.87;;;11.20;96.80;;;;;;5059965;28;20184;-85
2023/12/17 12:21:56;;;;;;;10.30;9.30;;;11.10;96.50;;;;;;5054344;28;20189;-87
2023/12/17 12:24:21;;;;;;;13.07;11.50;;;10.50;95.90;;;;;;5052032;28;20228;-86
2023/12/17 12:26:47;;;;;;;13.03;10.33;;;11.50;96.60;;;;;;5068485;28;20359;-87
2023/12/17 12:29:12;;;;;;;10.37;9.40;;;11.20;96.50;;;;;;5049487;28;20181;-87
2023/12/17 12:31:38;;;;;;;11.60;10.20;;;10.70;96.30;;;;;;5045742;28;20185;-86
2023/12/17 12:34:05;;;;;;;10.43;9.43;;;11.20;96.30;;;;;;5049586;28;20697;-86
2023/12/17 12:36:47;;;;;;;11.20;10.10;;;10.60;96.20;;;;;;5056898;28;20598;-87